Time;durP1;ratioP1;P1;durP2;ratioP2;P2;SDS_P1;SDS_P2;PMS_P1;PMS_P2;Temp;Humidity;BMP_temperature;BMP_pressure;BME280_temperature;BME280_humidity;BME280_pressure;Samples;Min_cycle;Max_cycle;Signal;HPM_P1;HPM_P2
2022/04/15 00:00:46;;;;;;;61.95;9.27;;;;;;;15.34;100.00;98427.66;5001267;28;20721;-57
2022/04/15 00:03:12;;;;;;;77.88;18.63;;;;;;;14.55;100.00;98433.47;5004205;28;20049;-57
2022/04/15 00:05:40;;;;;;;97.82;16.10;;;;;;;14.98;100.00;98431.28;5002346;28;20140;-56
2022/04/15 00:08:05;;;;;;;71.95;14.70;;;;;;;15.14;100.00;98426.09;5003738;28;20617;-57
2022/04/15 00:10:32;;;;;;;63.95;13.30;;;;;;;15.29;100.00;98424.41;5003966;28;20057;-56
2022/04/15 00:12:59;;;;;;;72.60;15.57;;;;;;;15.10;100.00;98420.13;5001648;28;20384;-56
2022/04/15 00:15:25;;;;;;;77.43;17.58;;;;;;;14.99;100.00;98422.50;5001729;28;20029;-55
2022/04/15 00:17:51;;;;;;;74.15;13.88;;;;;;;15.57;100.00;98422.00;5002442;28;20064;-59
2022/04/15 00:20:17;;;;;;;59.38;13.43;;;;;;;15.12;100.00;98423.53;5000275;28;20029;-57
2022/04/15 00:22:42;;;;;;;84.90;20.40;;;;;;;15.09;100.00;98418.47;5001869;28;20033;-57
2022/04/15 00:25:10;;;;;;;76.63;19.13;;;;;;;14.92;100.00;98431.63;5003567;28;20032;-55
2022/04/15 00:27:36;;;;;;;75.97;17.20;;;;;;;15.03;100.00;98435.41;5002683;28;20092;-56
2022/04/15 00:30:02;;;;;;;82.35;20.15;;;;;;;14.87;100.00;98431.00;5002511;28;20455;-57
2022/04/15 00:32:27;;;;;;;84.60;16.80;;;;;;;15.07;100.00;98441.34;4999675;28;20064;-57
2022/04/15 00:34:53;;;;;;;101.47;18.13;;;;;;;15.03;100.00;98430.16;5002233;28;20035;-56
2022/04/15 00:37:19;;;;;;;78.18;19.83;;;;;;;14.83;100.00;98433.81;5001132;28;20049;-57
2022/04/15 00:39:46;;;;;;;79.75;19.02;;;;;;;14.70;100.00;98434.50;5001697;28;20609;-61
2022/04/15 00:42:12;;;;;;;65.95;18.38;;;;;;;14.61;100.00;98435.81;5002578;28;20045;-58
2022/04/15 00:44:38;;;;;;;76.75;19.13;;;;;;;14.86;100.00;98421.44;5001220;28;20034;-57
2022/04/15 00:47:18;;;;;;;89.68;19.23;;;;;;;14.69;100.00;98425.78;5002328;28;20037;-57
2022/04/15 00:49:44;;;;;;;70.00;21.02;;;;;;;14.66;100.00;98431.16;5000777;28;20041;-56
2022/04/15 00:52:12;;;;;;;75.07;17.13;;;;;;;14.65;100.00;98429.50;4998832;28;20041;-55
2022/04/15 00:54:38;;;;;;;64.05;17.00;;;;;;;14.73;100.00;98429.94;5002989;28;20022;-56
2022/04/15 00:57:05;;;;;;;62.28;15.43;;;;;;;14.90;100.00;98422.97;5000943;28;20045;-55
2022/04/15 00:59:31;;;;;;;78.60;17.58;;;;;;;14.63;100.00;98421.69;5002736;28;20025;-56
2022/04/15 01:01:58;;;;;;;71.70;16.65;;;;;;;14.66;100.00;98425.91;4999501;28;20049;-58
2022/04/15 01:04:25;;;;;;;78.80;17.48;;;;;;;14.61;100.00;98427.91;5003904;28;20025;-55
2022/04/15 01:06:54;;;;;;;75.05;17.23;;;;;;;14.46;100.00;98435.63;5000531;28;20080;-57
2022/04/15 01:09:22;;;;;;;86.47;20.25;;;;;;;14.58;100.00;98420.22;5002943;28;20029;-56
2022/04/15 01:11:50;;;;;;;74.20;18.10;;;;;;;14.17;100.00;98429.19;5002353;28;20072;-58
2022/04/15 01:14:16;;;;;;;72.07;18.25;;;;;;;14.10;100.00;98426.91;5003150;28;20041;-57
2022/04/15 01:16:41;;;;;;;67.70;19.25;;;;;;;14.03;100.00;98440.34;4998845;28;20638;-55
2022/04/15 01:19:07;;;;;;;71.55;19.98;;;;;;;13.56;100.00;98453.91;5002965;28;20036;-56
2022/04/15 01:21:34;;;;;;;84.03;16.58;;;;;;;14.00;100.00;98453.59;5001945;28;20041;-57
2022/04/15 01:24:00;;;;;;;64.18;13.98;;;;;;;14.60;100.00;98457.75;5001406;28;20619;-55
2022/04/15 01:26:25;;;;;;;75.72;17.80;;;;;;;13.96;100.00;98445.97;5003587;28;20764;-57
2022/04/15 01:28:50;;;;;;;68.35;12.43;;;;;;;14.26;100.00;98454.13;5004170;28;20040;-55
2022/04/15 01:31:16;;;;;;;67.85;12.10;;;;;;;14.40;100.00;98451.66;4999785;28;20073;-58
2022/04/15 01:33:41;;;;;;;74.32;14.23;;;;;;;14.59;100.00;98458.66;4999736;28;20030;-57
2022/04/15 01:36:06;;;;;;;63.95;11.55;;;;;;;15.07;100.00;98446.59;5000891;28;20693;-57
2022/04/15 01:38:32;;;;;;;71.05;13.57;;;;;;;15.20;100.00;98441.50;5001275;28;20088;-59
2022/04/15 01:40:58;;;;;;;75.53;16.15;;;;;;;14.78;100.00;98446.31;5001472;28;20046;-56
2022/04/15 01:43:23;;;;;;;71.90;15.02;;;;;;;14.55;100.00;98454.47;5004382;28;20057;-58
2022/04/15 01:45:48;;;;;;;74.85;16.90;;;;;;;14.70;100.00;98452.88;5003238;28;20030;-58
2022/04/15 01:48:14;;;;;;;79.07;18.08;;;;;;;14.56;100.00;98456.19;5003047;28;20036;-57
2022/04/15 01:50:39;;;;;;;82.90;18.40;;;;;;;14.67;100.00;98463.53;5000955;28;20033;-58
2022/04/15 01:53:04;;;;;;;71.13;15.45;;;;;;;14.58;100.00;98457.81;5002441;28;20537;-59
2022/04/15 01:55:30;;;;;;;78.88;18.80;;;;;;;14.36;100.00;98460.63;5002253;28;20061;-55
2022/04/15 01:57:56;;;;;;;87.60;18.98;;;;;;;14.72;100.00;98462.38;5005675;28;20488;-56
2022/04/15 02:00:22;;;;;;;77.03;20.50;;;;;;;13.95;100.00;98462.59;5005878;28;20682;-55
2022/04/15 02:02:47;;;;;;;80.63;20.38;;;;;;;14.08;100.00;98467.22;5004077;28;20049;-57
2022/04/15 02:05:13;;;;;;;81.40;21.20;;;;;;;13.95;100.00;98473.97;5002248;28;20551;-56
2022/04/15 02:07:38;;;;;;;77.60;20.33;;;;;;;13.83;100.00;98471.91;5004752;28;20092;-56
2022/04/15 02:10:05;;;;;;;84.55;21.27;;;;;;;13.80;100.00;98477.28;5004160;28;21194;-56
2022/04/15 02:12:31;;;;;;;98.50;21.75;;;;;;;14.00;100.00;98474.56;5002976;28;20040;-58
2022/04/15 02:14:56;;;;;;;108.97;20.55;;;;;;;13.90;100.00;98478.56;5007706;28;20030;-58
2022/04/15 02:17:22;;;;;;;96.95;22.98;;;;;;;13.79;100.00;98475.59;5002120;28;20045;-58
2022/04/15 02:19:47;;;;;;;89.15;21.83;;;;;;;13.57;100.00;98481.81;5004918;28;20026;-57
2022/04/15 02:22:13;;;;;;;77.00;20.70;;;;;;;13.36;100.00;98490.66;5004972;28;20702;-57
2022/04/15 02:24:38;;;;;;;84.50;21.67;;;;;;;13.93;100.00;98483.69;5003481;28;20111;-56
2022/04/15 02:27:04;;;;;;;101.30;22.80;;;;;;;13.63;100.00;98485.94;5003607;28;20087;-57
2022/04/15 02:29:29;;;;;;;81.93;19.42;;;;;;;13.95;100.00;98488.81;5003098;28;20041;-57
2022/04/15 02:31:55;;;;;;;79.22;20.27;;;;;;;13.67;100.00;98493.59;5004674;28;20098;-56
2022/04/15 02:34:20;;;;;;;84.35;18.80;;;;;;;13.49;100.00;98491.78;5004943;28;20022;-58
2022/04/15 02:36:45;;;;;;;91.68;22.02;;;;;;;13.63;100.00;98492.03;5004046;28;20080;-57
2022/04/15 02:39:11;;;;;;;82.43;20.15;;;;;;;13.93;100.00;98488.06;5001328;28;20814;-56
2022/04/15 02:41:38;;;;;;;92.65;22.02;;;;;;;13.25;100.00;98491.09;5003768;28;20508;-58
2022/04/15 02:44:06;;;;;;;98.00;20.73;;;;;;;13.57;100.00;98488.84;5004873;28;20061;-58
2022/04/15 02:46:31;;;;;;;81.90;20.42;;;;;;;13.57;100.00;98494.94;5002276;28;20144;-56
2022/04/15 02:48:57;;;;;;;84.10;19.70;;;;;;;13.58;100.00;98491.41;5003135;28;20315;-58
2022/04/15 02:51:22;;;;;;;90.13;22.73;;;;;;;13.37;100.00;98495.81;5000835;28;20077;-56
2022/04/15 02:53:48;;;;;;;78.97;21.88;;;;;;;13.45;100.00;98491.09;5004092;28;20394;-58
2022/04/15 02:56:13;;;;;;;91.75;21.55;;;;;;;13.45;100.00;98492.84;5004481;28;20038;-56
2022/04/15 02:58:38;;;;;;;72.88;12.48;;;;;;;14.05;100.00;98498.81;5005630;28;20022;-57
2022/04/15 03:01:03;;;;;;;80.70;20.90;;;;;;;13.59;100.00;98489.63;5002821;28;20041;-57
2022/04/15 03:03:29;;;;;;;78.40;17.15;;;;;;;13.88;100.00;98491.75;5003295;28;20033;-57
2022/04/15 03:05:56;;;;;;;64.53;17.73;;;;;;;13.81;100.00;98492.13;5003595;28;20042;-58
2022/04/15 03:08:21;;;;;;;87.80;19.45;;;;;;;13.68;100.00;98497.91;5003235;28;20789;-55
2022/04/15 03:10:47;;;;;;;87.68;18.35;;;;;;;13.90;100.00;98491.69;5005540;28;20526;-57
2022/04/15 03:13:12;;;;;;;80.00;18.13;;;;;;;13.89;100.00;98492.59;5001770;28;20396;-57
2022/04/15 03:15:37;;;;;;;81.80;18.70;;;;;;;13.99;100.00;98493.03;4999957;28;20066;-56
2022/04/15 03:18:03;;;;;;;75.55;15.30;;;;;;;14.01;100.00;98492.03;5001723;28;20054;-56
2022/04/15 03:20:28;;;;;;;90.38;19.17;;;;;;;13.75;100.00;98490.63;5002166;28;20467;-57
2022/04/15 03:22:54;;;;;;;61.75;14.38;;;;;;;14.18;100.00;98488.59;5002662;28;20083;-57
2022/04/15 03:25:19;;;;;;;76.10;17.27;;;;;;;13.88;100.00;98490.91;5003507;28;20056;-57
2022/04/15 03:27:45;;;;;;;84.00;17.20;;;;;;;13.77;100.00;98493.19;5003783;28;20080;-57
2022/04/15 03:30:11;;;;;;;75.95;17.58;;;;;;;13.90;100.00;98504.78;5017277;28;20068;-58
2022/04/15 03:32:47;;;;;;;71.53;15.02;;;;;;;14.13;100.00;98495.00;5005219;28;20029;-55
2022/04/15 03:35:14;;;;;;;69.22;16.60;;;;;;;14.08;100.00;98493.44;5003362;28;20029;-58
2022/04/15 03:37:40;;;;;;;77.47;13.98;;;;;;;14.15;100.00;98498.38;5003578;28;20503;-56
2022/04/15 03:40:06;;;;;;;82.18;14.45;;;;;;;14.10;100.00;98495.13;5002921;28;20044;-57
2022/04/15 03:42:42;;;;;;;68.78;16.65;;;;;;;13.60;100.00;98497.44;5002443;28;20550;-57
2022/04/15 03:45:07;;;;;;;81.03;17.15;;;;;;;13.68;100.00;98505.78;5000852;28;20530;-58
2022/04/15 03:47:33;;;;;;;77.07;16.98;;;;;;;13.68;100.00;98500.53;5003866;28;20125;-58
2022/04/15 03:49:58;;;;;;;74.00;16.25;;;;;;;13.33;100.00;98509.16;5003634;28;20070;-57
2022/04/15 03:52:23;;;;;;;77.78;17.80;;;;;;;13.37;100.00;98513.31;5001209;28;20042;-57
2022/04/15 03:54:49;;;;;;;104.68;18.05;;;;;;;13.59;100.00;98502.72;5004169;28;20591;-57
2022/04/15 03:57:14;;;;;;;76.60;18.05;;;;;;;13.53;100.00;98516.09;5002363;28;20052;-57
2022/04/15 03:59:39;;;;;;;68.07;13.15;;;;;;;13.91;100.00;98506.47;5003014;28;20034;-57
2022/04/15 04:02:04;;;;;;;81.25;16.50;;;;;;;13.57;100.00;98509.81;5002679;28;20034;-57
2022/04/15 04:04:30;;;;;;;83.55;18.20;;;;;;;13.41;100.00;98517.50;5003212;28;20026;-57
2022/04/15 04:06:55;;;;;;;102.18;18.80;;;;;;;13.00;100.00;98512.28;5003043;28;20104;-55
2022/04/15 04:09:20;;;;;;;83.18;18.90;;;;;;;13.08;100.00;98523.25;5002841;28;20088;-55
2022/04/15 04:11:47;;;;;;;71.88;14.75;;;;;;;13.36;100.00;98527.31;5004117;28;20052;-56
2022/04/15 04:14:13;;;;;;;86.15;18.08;;;;;;;13.20;100.00;98524.50;5003152;28;20021;-57
2022/04/15 04:16:38;;;;;;;86.32;17.73;;;;;;;13.04;100.00;98516.44;5002720;28;20041;-57
2022/04/15 04:19:03;;;;;;;70.28;11.63;;;;;;;13.78;100.00;98528.94;5002826;28;20038;-57
2022/04/15 04:21:30;;;;;;;78.18;17.75;;;;;;;13.41;100.00;98528.81;5005802;28;20045;-56
2022/04/15 04:23:55;;;;;;;83.53;15.20;;;;;;;13.56;100.00;98521.22;5004586;28;20057;-57
2022/04/15 04:26:20;;;;;;;63.03;12.60;;;;;;;13.83;100.00;98513.88;5001385;28;20137;-57
2022/04/15 04:28:46;;;;;;;77.72;17.38;;;;;;;13.72;100.00;98510.88;5000742;28;20117;-57
2022/04/15 04:31:11;;;;;;;87.55;17.58;;;;;;;13.45;100.00;98513.81;4998483;28;20048;-56
2022/04/15 04:33:36;;;;;;;76.43;19.08;;;;;;;13.17;100.00;98525.47;5002722;28;20088;-57
2022/04/15 04:36:02;;;;;;;80.15;16.63;;;;;;;13.39;100.00;98524.59;5000671;28;20459;-58
2022/04/15 04:38:27;;;;;;;71.32;15.73;;;;;;;13.52;100.00;98525.72;5001322;28;20022;-58
2022/04/15 04:40:53;;;;;;;80.47;17.90;;;;;;;13.29;100.00;98540.69;5000435;28;20034;-57
2022/04/15 04:43:18;;;;;;;80.35;17.75;;;;;;;12.71;100.00;98533.50;5002400;28;20411;-57
2022/04/15 04:45:44;;;;;;;77.32;18.00;;;;;;;13.33;100.00;98535.34;5003199;28;20514;-58
2022/04/15 04:48:10;;;;;;;82.13;17.08;;;;;;;13.52;100.00;98536.22;5002411;28;20042;-57
2022/04/15 04:50:35;;;;;;;80.43;17.30;;;;;;;13.65;100.00;98534.75;4999744;28;20041;-56
2022/04/15 04:53:00;;;;;;;80.50;17.02;;;;;;;13.35;100.00;98536.13;5002248;28;20036;-57
2022/04/15 04:55:26;;;;;;;76.43;14.45;;;;;;;13.70;100.00;98539.78;5001516;28;20116;-57
2022/04/15 04:57:51;;;;;;;84.95;18.58;;;;;;;12.92;100.00;98537.00;5000328;28;20017;-55
2022/04/15 05:00:17;;;;;;;81.43;17.75;;;;;;;12.94;100.00;98542.19;5001063;28;20445;-55
2022/04/15 05:02:43;;;;;;;80.70;17.73;;;;;;;13.23;100.00;98545.31;5002863;28;20032;-56
2022/04/15 05:05:09;;;;;;;85.40;17.67;;;;;;;13.44;100.00;98544.44;5001495;28;20052;-56
2022/04/15 05:07:35;;;;;;;94.50;17.92;;;;;;;13.43;100.00;98541.88;5003776;28;20104;-55
2022/04/15 05:10:01;;;;;;;83.90;17.33;;;;;;;13.13;100.00;98544.88;5000621;28;20057;-59
2022/04/15 05:12:26;;;;;;;87.47;16.77;;;;;;;13.41;100.00;98538.47;5002320;28;20888;-55
2022/04/15 05:14:52;;;;;;;89.93;15.10;;;;;;;13.57;100.00;98538.66;5002440;28;20021;-55
2022/04/15 05:17:17;;;;;;;65.53;12.05;;;;;;;13.89;100.00;98537.16;5002190;28;20057;-57
2022/04/15 05:19:44;;;;;;;86.57;15.80;;;;;;;13.80;100.00;98541.09;5001460;28;20029;-55
2022/04/15 05:22:09;;;;;;;82.78;15.43;;;;;;;13.74;100.00;98549.22;5002626;28;20191;-56
2022/04/15 05:24:35;;;;;;;76.95;13.13;;;;;;;14.12;100.00;98540.53;5003343;28;20128;-56
2022/04/15 05:27:00;;;;;;;75.40;17.17;;;;;;;13.92;100.00;98544.06;5000647;28;20045;-57
2022/04/15 05:29:26;;;;;;;76.97;16.15;;;;;;;14.16;100.00;98547.31;5005460;28;20030;-58
2022/04/15 05:31:51;;;;;;;113.03;19.83;;;;;;;13.59;100.00;98542.06;5003584;28;20128;-56
2022/04/15 05:34:16;;;;;;;76.40;16.60;;;;;;;14.40;100.00;98551.41;5003000;28;20108;-57
2022/04/15 05:36:42;;;;;;;85.72;14.98;;;;;;;14.74;100.00;98541.94;5004257;28;20042;-56
2022/04/15 05:39:07;;;;;;;85.07;15.48;;;;;;;14.45;100.00;98545.94;5005236;28;20030;-56
2022/04/15 05:41:32;;;;;;;74.70;16.13;;;;;;;14.64;100.00;98548.53;5002685;28;20046;-55
2022/04/15 05:43:58;;;;;;;75.85;14.60;;;;;;;14.48;100.00;98545.78;5003313;28;20640;-57
2022/04/15 05:46:27;;;;;;;75.03;15.15;;;;;;;14.54;100.00;98548.13;5004481;28;20042;-56
2022/04/15 05:48:52;;;;;;;70.50;12.30;;;;;;;15.15;100.00;98551.28;5004782;28;20505;-56
2022/04/15 05:51:19;;;;;;;76.47;16.98;;;;;;;14.80;100.00;98554.75;5005318;28;20033;-56
2022/04/15 05:53:44;;;;;;;78.47;15.48;;;;;;;14.64;100.00;98559.06;5005557;28;20112;-56
2022/04/15 05:56:09;;;;;;;71.20;15.32;;;;;;;14.79;100.00;98563.53;5005303;28;20038;-56
2022/04/15 05:58:34;;;;;;;72.85;16.05;;;;;;;14.35;100.00;98566.50;5004444;28;20062;-57
2022/04/15 06:01:00;;;;;;;73.78;15.68;;;;;;;14.33;100.00;98568.34;5004118;28;20458;-55
2022/04/15 06:03:31;;;;;;;69.82;16.08;;;;;;;14.74;100.00;98568.19;5004914;28;20022;-57
2022/04/15 06:05:56;;;;;;;73.53;15.18;;;;;;;14.70;100.00;98566.63;5005228;28;20133;-56
2022/04/15 06:08:22;;;;;;;67.03;15.52;;;;;;;14.45;100.00;98580.91;5003251;28;20103;-57
2022/04/15 06:10:47;;;;;;;70.72;13.45;;;;;;;15.01;100.00;98573.00;5003210;28;20045;-56
2022/04/15 06:13:19;;;;;;;68.05;14.05;;;;;;;15.39;100.00;98578.94;5005375;28;20030;-55
2022/04/15 06:15:52;;;;;;;70.60;12.10;;;;;;;15.47;100.00;98575.91;5003850;28;20129;-57
2022/04/15 06:18:21;;;;;;;88.32;15.18;;;;;;;14.98;100.00;98581.88;5004265;28;20109;-57
2022/04/15 06:20:47;;;;;;;77.85;12.90;;;;;;;15.16;100.00;98577.50;5003025;28;20509;-57
2022/04/15 06:23:14;;;;;;;82.95;15.77;;;;;;;14.74;100.00;98583.94;5005554;28;20033;-58
2022/04/15 06:25:40;;;;;;;66.15;15.13;;;;;;;14.83;100.00;98586.13;5002246;28;20506;-57
2022/04/15 06:28:05;;;;;;;74.60;15.02;;;;;;;15.03;100.00;98581.66;5006509;28;20480;-56
2022/04/15 06:30:31;;;;;;;71.00;14.82;;;;;;;14.78;100.00;98588.13;5002354;28;20116;-56
2022/04/15 06:32:56;;;;;;;70.55;14.50;;;;;;;14.99;100.00;98585.34;5003090;28;20022;-58
2022/04/15 06:35:21;;;;;;;83.05;15.18;;;;;;;14.53;100.00;98587.56;5000452;28;20045;-57
2022/04/15 06:37:47;;;;;;;69.72;15.23;;;;;;;14.05;100.00;98593.25;5003644;28;20110;-58
2022/04/15 06:40:12;;;;;;;77.25;15.52;;;;;;;14.86;100.00;98590.38;5002675;28;20462;-56
2022/04/15 06:42:37;;;;;;;69.43;14.32;;;;;;;15.86;100.00;98577.44;5005162;28;20690;-58
2022/04/15 06:45:04;;;;;;;69.43;14.48;;;;;;;16.03;100.00;98578.28;5005717;28;20037;-57
2022/04/15 06:47:29;;;;;;;76.30;15.02;;;;;;;16.91;100.00;98569.03;5001811;28;20129;-57
2022/04/15 06:49:55;;;;;;;77.75;14.68;;;;;;;18.26;100.00;98560.00;5003617;28;20097;-57
2022/04/15 06:52:20;;;;;;;65.97;13.10;;;;;;;18.33;100.00;98569.25;5002690;28;20044;-56
2022/04/15 06:54:46;;;;;;;93.63;14.85;;;;;;;20.89;100.00;98552.56;5002555;28;20018;-56
2022/04/15 06:57:12;;;;;;;55.63;13.27;;;;;;;21.09;100.00;98558.19;5004764;28;20070;-58
2022/04/15 06:59:38;;;;;;;58.72;12.82;;;;;;;20.68;100.00;98554.19;5006087;28;20028;-57
2022/04/15 07:02:04;;;;;;;62.05;12.75;;;;;;;21.69;100.00;98558.94;5002455;28;20042;-56
2022/04/15 07:04:31;;;;;;;58.15;12.02;;;;;;;25.16;81.94;98557.13;5002916;28;20037;-57
2022/04/15 07:06:56;;;;;;;64.68;12.80;;;;;;;23.70;79.68;98562.09;5001722;28;20025;-58
2022/04/15 07:09:22;;;;;;;60.67;13.32;;;;;;;24.43;77.50;98555.66;5004846;28;20041;-57
2022/04/15 07:11:47;;;;;;;64.43;12.73;;;;;;;25.46;70.21;98558.81;5000911;28;20041;-58
2022/04/15 07:14:12;;;;;;;52.63;11.40;;;;;;;23.99;68.53;98552.44;5003845;28;20091;-58
2022/04/15 07:16:38;;;;;;;51.80;10.35;;;;;;;22.36;80.03;98560.75;5004043;28;20514;-58
2022/04/15 07:19:04;;;;;;;63.70;11.95;;;;;;;23.46;72.20;98555.25;5003414;28;20573;-56
2022/04/15 07:21:41;;;;;;;52.05;10.68;;;;;;;26.60;61.86;98557.78;5004155;28;20046;-57
2022/04/15 07:24:07;;;;;;;63.33;11.07;;;;;;;27.07;58.78;98555.75;5002345;28;20033;-58
2022/04/15 07:26:32;;;;;;;50.85;10.20;;;;;;;27.64;56.51;98554.47;5001524;28;20075;-58
2022/04/15 07:28:58;;;;;;;62.05;10.90;;;;;;;24.39;64.75;98553.38;5003879;28;20480;-57
2022/04/15 07:31:24;;;;;;;57.85;10.93;;;;;;;25.58;60.23;98556.78;5004507;28;20133;-58
2022/04/15 07:33:50;;;;;;;76.10;11.88;;;;;;;26.95;56.41;98561.50;5002603;28;20029;-59
2022/04/15 07:39:11;;;;;;;47.72;9.68;;;;;;;26.39;57.87;98571.41;5002813;28;20037;-60
2022/04/15 07:41:38;;;;;;;52.90;9.73;;;;;;;28.34;52.18;98554.31;5001943;28;20153;-58
2022/04/15 07:44:08;;;;;;;57.35;9.55;;;;;;;26.92;51.89;98554.59;5001379;28;20068;-57
2022/04/15 07:46:35;;;;;;;61.45;10.07;;;;;;;27.63;51.59;98555.50;5002017;28;20034;-59
2022/04/15 07:49:01;;;;;;;49.25;8.82;;;;;;;25.37;55.34;98559.66;5002494;28;20076;-57
2022/04/15 07:51:26;;;;;;;48.53;8.70;;;;;;;25.34;56.50;98559.94;5000375;28;20026;-58
2022/04/15 07:53:52;;;;;;;49.67;8.27;;;;;;;27.63;52.61;98555.50;5004319;28;20076;-58
2022/04/15 07:56:17;;;;;;;61.80;9.60;;;;;;;26.66;51.90;98562.53;5001161;28;20084;-59
2022/04/15 07:58:42;;;;;;;51.05;9.90;;;;;;;25.76;53.52;98559.56;4999356;28;20022;-59
2022/04/15 08:01:09;;;;;;;51.42;9.82;;;;;;;24.22;58.54;98552.22;5000240;28;20757;-57
2022/04/15 08:03:34;;;;;;;47.83;9.88;;;;;;;25.63;54.40;98556.38;5002952;28;20129;-58
2022/04/15 08:06:00;;;;;;;43.70;9.80;;;;;;;24.01;59.95;98566.47;5002166;28;20098;-56
2022/04/15 08:08:25;;;;;;;61.15;10.82;;;;;;;23.61;61.32;98558.41;5001999;28;20088;-58
2022/04/15 08:10:51;;;;;;;65.72;11.90;;;;;;;22.69;66.15;98572.25;5000846;28;20185;-60
2022/04/15 08:13:17;;;;;;;65.15;11.07;;;;;;;26.08;54.80;98569.88;5002361;28;20036;-57
2022/04/15 08:15:42;;;;;;;51.20;10.20;;;;;;;25.93;54.27;98566.84;5002144;28;20030;-58
2022/04/15 08:18:08;;;;;;;59.55;9.85;;;;;;;25.27;55.75;98569.50;5001764;28;20017;-57
2022/04/15 08:20:33;;;;;;;60.13;10.70;;;;;;;26.69;52.40;98568.44;5000924;28;20034;-59
2022/04/15 08:22:58;;;;;;;46.53;9.23;;;;;;;24.60;54.44;98566.66;5004787;28;20163;-59
2022/04/15 08:25:24;;;;;;;57.58;10.40;;;;;;;25.58;52.54;98568.34;4999546;28;20033;-60
2022/04/15 08:27:49;;;;;;;46.97;9.85;;;;;;;25.89;52.89;98575.28;5003498;28;20224;-59
2022/04/15 08:30:14;;;;;;;49.93;10.30;;;;;;;26.19;51.54;98571.50;5001414;28;20026;-59
2022/04/15 08:32:39;;;;;;;56.40;9.25;;;;;;;26.38;53.19;98572.41;5002249;28;20577;-56
2022/04/15 08:35:07;;;;;;;48.88;9.07;;;;;;;27.16;50.49;98569.19;5001285;28;20079;-58
2022/04/15 08:37:33;;;;;;;63.13;11.23;;;;;;;23.55;54.44;98569.59;4979786;28;20042;-59
2022/04/15 08:40:02;;;;;;;71.35;11.35;;;;;;;24.21;53.69;98566.56;4979140;28;20395;-59
2022/04/15 08:42:27;;;;;;;63.55;11.52;;;;;;;23.31;55.60;98565.38;4980953;28;20035;-60
2022/04/15 08:44:54;;;;;;;84.40;12.18;;;;;;;22.95;57.79;98572.75;4981269;28;20033;-57
2022/04/15 08:47:20;;;;;;;46.30;9.65;;;;;;;24.15;56.73;98572.41;4997817;28;20116;-59
2022/04/15 08:49:46;;;;;;;68.22;11.45;;;;;;;25.96;52.90;98577.22;5001758;28;20183;-56
2022/04/15 08:52:15;;;;;;;64.53;10.23;;;;;;;25.80;50.16;98568.13;5002384;28;20037;-58
2022/04/15 08:54:40;;;;;;;64.38;10.65;;;;;;;24.45;54.10;98579.53;5001849;28;20029;-57
2022/04/15 08:57:06;;;;;;;58.40;9.98;;;;;;;25.38;52.21;98572.00;4999312;28;20403;-58
2022/04/15 08:59:32;;;;;;;56.75;10.27;;;;;;;24.77;51.76;98573.97;5002485;28;20026;-58
2022/04/15 09:01:57;;;;;;;52.30;10.35;;;;;;;25.20;50.65;98572.72;5003285;28;20388;-58
2022/04/15 09:04:23;;;;;;;51.97;9.50;;;;;;;25.46;49.79;98569.50;5000038;28;20029;-57
2022/04/15 09:06:55;;;;;;;79.50;11.15;;;;;;;23.41;53.25;98573.41;4998158;28;20061;-58
2022/04/15 09:09:24;;;;;;;52.67;8.90;;;;;;;21.98;58.95;98577.88;4999448;28;20495;-57
2022/04/15 09:11:50;;;;;;;61.47;9.55;;;;;;;22.81;57.01;98571.25;4997692;28;20057;-55
2022/04/15 09:14:16;;;;;;;67.00;10.48;;;;;;;21.86;61.31;98585.00;5002210;28;20053;-57
2022/04/15 09:16:46;;;;;;;76.65;10.95;;;;;;;23.00;60.25;98583.03;4998043;28;20167;-58
2022/04/15 09:19:12;;;;;;;56.63;10.00;;;;;;;24.07;60.46;98574.91;5000040;28;20797;-56
2022/04/15 09:21:40;;;;;;;52.00;8.95;;;;;;;24.40;55.97;98576.41;4999179;28;20700;-57
2022/04/15 09:24:07;;;;;;;71.53;10.15;;;;;;;26.70;48.58;98578.13;4999343;28;20030;-58
2022/04/15 09:26:35;;;;;;;55.45;9.18;;;;;;;26.65;49.26;98583.13;4999431;28;20042;-56
2022/04/15 09:29:00;;;;;;;55.60;9.10;;;;;;;26.97;47.63;98571.03;5003237;28;20029;-56
2022/04/15 09:31:26;;;;;;;48.50;6.40;;;;;;;26.80;49.56;98583.44;4999436;28;20039;-56
2022/04/15 09:33:59;;;;;;;63.58;8.32;;;;;;;26.17;47.35;98576.16;4998044;28;20021;-58
2022/04/15 09:36:36;;;;;;;47.75;6.90;;;;;;;26.35;47.16;98574.38;4998631;28;20149;-59
2022/04/15 09:39:14;;;;;;;55.38;7.00;;;;;;;27.86;44.12;98570.03;5000882;28;20030;-58
2022/04/15 09:42:03;;;;;;;44.45;6.40;;;;;;;27.60;43.23;98574.56;4997938;28;20054;-56
2022/04/15 09:44:32;;;;;;;50.78;6.85;;;;;;;28.37;42.31;98574.63;5002094;28;20030;-58
2022/04/15 09:47:03;;;;;;;55.80;7.40;;;;;;;27.56;41.48;98570.53;4999325;28;20030;-58
2022/04/15 09:49:32;;;;;;;53.83;7.78;;;;;;;27.36;41.65;98569.88;4998002;28;20033;-58
2022/04/15 09:51:59;;;;;;;58.75;8.18;;;;;;;26.86;41.80;98576.63;4997154;28;20038;-56
2022/04/15 09:54:27;;;;;;;63.45;8.02;;;;;;;26.86;41.82;98568.59;5004324;28;20515;-57
2022/04/15 09:56:59;;;;;;;58.72;7.82;;;;;;;27.62;41.53;98568.03;5000035;28;20078;-57
2022/04/15 09:59:29;;;;;;;57.38;7.40;;;;;;;28.25;40.79;98572.25;5000193;28;20025;-59
2022/04/15 10:02:02;;;;;;;48.78;7.72;;;;;;;25.77;43.60;98572.78;5000897;28;20041;-59
2022/04/15 10:04:28;;;;;;;56.33;7.93;;;;;;;26.60;44.40;98566.66;5001216;28;20046;-58
2022/04/15 10:06:54;;;;;;;52.00;7.03;;;;;;;26.89;43.44;98562.91;5002501;28;20794;-56
2022/04/15 10:09:20;;;;;;;48.58;7.95;;;;;;;24.83;47.67;98561.91;5001360;28;20029;-58
2022/04/15 10:11:47;;;;;;;46.25;7.10;;;;;;;23.89;49.57;98562.22;4998331;28;20800;-56
2022/04/15 10:14:15;;;;;;;58.17;8.60;;;;;;;23.83;48.92;98562.75;5003112;28;20478;-56
2022/04/15 10:16:42;;;;;;;72.47;10.82;;;;;;;23.05;51.12;98559.59;5001803;28;20042;-56
2022/04/15 10:19:08;;;;;;;50.28;7.90;;;;;;;24.44;49.43;98557.34;5002342;28;20065;-58
2022/04/15 10:21:45;;;;;;;53.70;8.10;;;;;;;24.58;49.23;98563.31;5000971;28;20065;-57
2022/04/15 10:24:12;;;;;;;47.35;8.23;;;;;;;24.15;47.84;98551.09;5004953;28;20129;-57
2022/04/15 10:26:44;;;;;;;58.00;10.60;;;;;;;24.10;46.60;98551.50;5002631;28;20121;-58
2022/04/15 10:29:10;;;;;;;54.75;9.55;;;;;;;24.86;45.97;98550.13;5004941;28;20045;-58
2022/04/15 10:31:48;;;;;;;52.63;9.85;;;;;;;23.96;48.22;98552.69;5003642;28;20048;-57
2022/04/15 10:34:16;;;;;;;59.53;8.90;;;;;;;25.10;46.15;98539.00;5004924;28;20112;-56
2022/04/15 10:37:01;;;;;;;62.15;9.20;;;;;;;26.02;44.53;98540.22;5001505;28;20046;-56
2022/04/15 10:39:27;;;;;;;54.85;8.30;;;;;;;25.89;45.14;98538.69;5003632;28;20034;-58
2022/04/15 10:41:55;;;;;;;62.15;7.80;;;;;;;24.68;47.64;98537.47;5003056;28;20141;-58
2022/04/15 10:44:35;;;;;;;45.60;8.10;;;;;;;23.72;49.12;98538.84;5001773;28;20045;-57
2022/04/15 10:47:10;;;;;;;59.92;8.82;;;;;;;23.17;49.59;98534.59;5002085;28;20041;-60
2022/04/15 10:49:39;;;;;;;57.97;7.78;;;;;;;25.29;46.19;98533.69;5002108;28;20030;-58
2022/04/15 10:52:21;;;;;;;59.78;8.18;;;;;;;25.81;44.26;98535.91;5001979;28;20026;-59
2022/04/15 10:54:49;;;;;;;;;;;;;;;24.46;45.27;98535.03;4999880;28;20053;-59
2022/04/15 10:57:17;;;;;;;57.00;7.95;;;;;;;26.13;43.36;98530.16;5001362;28;19997;-60
2022/04/15 11:02:51;;;;;;;85.82;18.85;;;;;;;21.58;52.49;98543.84;5000211;28;20052;-60
2022/04/15 11:05:43;;;;;;;70.75;9.32;;;;;;;23.07;51.50;98544.34;4998730;28;20035;-59
2022/04/15 11:08:16;;;;;;;86.85;9.68;;;;;;;24.60;48.27;98532.00;4999240;28;20072;-58
2022/04/15 11:10:59;;;;;;;53.13;7.55;;;;;;;25.37;45.88;98527.63;4999110;28;20068;-58
2022/04/15 11:13:40;;;;;;;80.45;10.38;;;;;;;23.83;47.87;98522.78;5000647;28;20026;-57
2022/04/15 11:16:11;;;;;;;62.57;8.37;;;;;;;25.35;48.01;98522.44;4998398;28;20592;-55
2022/04/15 11:18:42;;;;;;;52.78;7.32;;;;;;;23.85;49.44;98521.66;4998405;28;20080;-57